sensor_id;sensor_type;location;lat;lon;timestamp;temperature;humidity
58582;DHT22;44361;51.476;5.700;2023-03-04T00:02:18;5.40;97.30
58582;DHT22;44361;51.476;5.700;2023-03-04T00:04:44;5.40;97.60
58582;DHT22;44361;51.476;5.700;2023-03-04T00:07:10;5.40;97.40
58582;DHT22;44361;51.476;5.700;2023-03-04T00:09:36;5.40;97.50
58582;DHT22;44361;51.476;5.700;2023-03-04T00:12:02;5.50;97.30
58582;DHT22;44361;51.476;5.700;2023-03-04T00:14:28;5.40;97.30
58582;DHT22;44361;51.476;5.700;2023-03-04T00:16:53;5.40;97.40
58582;DHT22;44361;51.476;5.700;2023-03-04T00:19:19;5.40;97.60
58582;DHT22;44361;51.476;5.700;2023-03-04T00:21:44;5.40;97.80
58582;DHT22;44361;51.476;5.700;2023-03-04T00:24:10;5.40;97.60
58582;DHT22;44361;51.476;5.700;2023-03-04T00:26:35;5.40;97.50
58582;DHT22;44361;51.476;5.700;2023-03-04T00:29:01;5.40;97.70
58582;DHT22;44361;51.476;5.700;2023-03-04T00:31:26;5.40;97.90
58582;DHT22;44361;51.476;5.700;2023-03-04T00:33:52;5.40;97.90
58582;DHT22;44361;51.476;5.700;2023-03-04T00:36:17;5.40;97.90
58582;DHT22;44361;51.476;5.700;2023-03-04T00:38:43;5.40;97.80
58582;DHT22;44361;51.476;5.700;2023-03-04T00:41:08;5.50;97.70
58582;DHT22;44361;51.476;5.700;2023-03-04T00:43:34;5.50;97.40
58582;DHT22;44361;51.476;5.700;2023-03-04T00:45:59;5.50;97.30
58582;DHT22;44361;51.476;5.700;2023-03-04T00:48:25;5.40;97.30
58582;DHT22;44361;51.476;5.700;2023-03-04T00:50:50;5.40;97.50
58582;DHT22;44361;51.476;5.700;2023-03-04T00:53:18;5.40;97.50
58582;DHT22;44361;51.476;5.700;2023-03-04T00:55:44;5.50;97.50
58582;DHT22;44361;51.476;5.700;2023-03-04T00:58:09;5.40;97.50
58582;DHT22;44361;51.476;5.700;2023-03-04T01:00:35;5.50;97.50
58582;DHT22;44361;51.476;5.700;2023-03-04T01:03:00;5.50;97.30
58582;DHT22;44361;51.476;5.700;2023-03-04T01:05:26;5.50;97.50
58582;DHT22;44361;51.476;5.700;2023-03-04T01:07:51;5.50;97.60
58582;DHT22;44361;51.476;5.700;2023-03-04T01:10:17;5.50;97.60
58582;DHT22;44361;51.476;5.700;2023-03-04T01:12:43;5.40;97.70
58582;DHT22;44361;51.476;5.700;2023-03-04T01:15:11;5.40;98.00
58582;DHT22;44361;51.476;5.700;2023-03-04T01:17:37;5.40;97.80
58582;DHT22;44361;51.476;5.700;2023-03-04T01:20:03;5.50;98.00
58582;DHT22;44361;51.476;5.700;2023-03-04T01:22:30;5.40;98.20
58582;DHT22;44361;51.476;5.700;2023-03-04T01:24:56;5.40;98.30
58582;DHT22;44361;51.476;5.700;2023-03-04T01:27:21;5.40;98.20
58582;DHT22;44361;51.476;5.700;2023-03-04T01:29:47;5.50;98.10
58582;DHT22;44361;51.476;5.700;2023-03-04T01:32:12;5.40;98.30
58582;DHT22;44361;51.476;5.700;2023-03-04T01:34:38;5.40;98.20
58582;DHT22;44361;51.476;5.700;2023-03-04T01:37:03;5.40;98.30
58582;DHT22;44361;51.476;5.700;2023-03-04T01:39:29;5.40;98.40
58582;DHT22;44361;51.476;5.700;2023-03-04T01:41:54;5.40;98.40
58582;DHT22;44361;51.476;5.700;2023-03-04T01:44:20;5.40;98.40
58582;DHT22;44361;51.476;5.700;2023-03-04T01:46:52;5.40;98.40
58582;DHT22;44361;51.476;5.700;2023-03-04T01:49:18;5.40;98.40
58582;DHT22;44361;51.476;5.700;2023-03-04T01:51:47;5.40;98.30
58582;DHT22;44361;51.476;5.700;2023-03-04T01:54:14;5.40;98.20
58582;DHT22;44361;51.476;5.700;2023-03-04T01:56:43;5.40;98.20
58582;DHT22;44361;51.476;5.700;2023-03-04T01:59:19;5.40;98.30
58582;DHT22;44361;51.476;5.700;2023-03-04T02:01:50;5.40;98.10
58582;DHT22;44361;51.476;5.700;2023-03-04T02:04:18;5.40;98.10
58582;DHT22;44361;51.476;5.700;2023-03-04T02:06:46;5.40;97.90
58582;DHT22;44361;51.476;5.700;2023-03-04T02:09:14;5.40;97.90
58582;DHT22;44361;51.476;5.700;2023-03-04T02:11:41;5.40;97.90
58582;DHT22;44361;51.476;5.700;2023-03-04T02:14:07;5.40;97.70
58582;DHT22;44361;51.476;5.700;2023-03-04T02:16:33;5.40;97.50
58582;DHT22;44361;51.476;5.700;2023-03-04T02:18:59;5.50;97.80
58582;DHT22;44361;51.476;5.700;2023-03-04T02:21:30;5.40;97.80
58582;DHT22;44361;51.476;5.700;2023-03-04T02:24:33;5.40;97.90
58582;DHT22;44361;51.476;5.700;2023-03-04T02:27:00;5.50;97.80
58582;DHT22;44361;51.476;5.700;2023-03-04T02:29:27;5.50;97.80
58582;DHT22;44361;51.476;5.700;2023-03-04T02:31:53;5.40;97.90
58582;DHT22;44361;51.476;5.700;2023-03-04T02:34:24;5.50;98.00
58582;DHT22;44361;51.476;5.700;2023-03-04T02:36:53;5.50;98.10
58582;DHT22;44361;51.476;5.700;2023-03-04T02:41:44;5.50;98.40
58582;DHT22;44361;51.476;5.700;2023-03-04T02:44:19;5.40;98.20
58582;DHT22;44361;51.476;5.700;2023-03-04T02:46:45;5.40;98.20
58582;DHT22;44361;51.476;5.700;2023-03-04T02:49:10;5.40;97.90
58582;DHT22;44361;51.476;5.700;2023-03-04T02:51:36;5.50;97.80
58582;DHT22;44361;51.476;5.700;2023-03-04T02:54:02;5.40;97.90
58582;DHT22;44361;51.476;5.700;2023-03-04T02:56:27;5.40;97.90
58582;DHT22;44361;51.476;5.700;2023-03-04T02:58:53;5.40;97.80
58582;DHT22;44361;51.476;5.700;2023-03-04T03:01:18;5.40;98.00
58582;DHT22;44361;51.476;5.700;2023-03-04T03:03:44;5.40;98.10
58582;DHT22;44361;51.476;5.700;2023-03-04T03:06:09;5.40;98.20
58582;DHT22;44361;51.476;5.700;2023-03-04T03:08:35;5.40;98.30
58582;DHT22;44361;51.476;5.700;2023-03-04T03:11:00;5.40;98.50
58582;DHT22;44361;51.476;5.700;2023-03-04T03:13:26;5.30;98.60
58582;DHT22;44361;51.476;5.700;2023-03-04T03:15:53;5.40;98.70
58582;DHT22;44361;51.476;5.700;2023-03-04T03:18:18;5.40;98.90
58582;DHT22;44361;51.476;5.700;2023-03-04T03:20:44;5.30;98.80
58582;DHT22;44361;51.476;5.700;2023-03-04T03:23:10;5.40;98.90
58582;DHT22;44361;51.476;5.700;2023-03-04T03:25:35;5.40;98.90
58582;DHT22;44361;51.476;5.700;2023-03-04T03:28:01;5.40;98.90
58582;DHT22;44361;51.476;5.700;2023-03-04T03:30:27;5.40;98.80
58582;DHT22;44361;51.476;5.700;2023-03-04T03:32:52;5.40;98.80
58582;DHT22;44361;51.476;5.700;2023-03-04T03:35:18;5.40;99.00
58582;DHT22;44361;51.476;5.700;2023-03-04T03:37:43;5.40;99.30
58582;DHT22;44361;51.476;5.700;2023-03-04T03:40:10;5.40;99.20
58582;DHT22;44361;51.476;5.700;2023-03-04T03:42:35;5.30;99.30
58582;DHT22;44361;51.476;5.700;2023-03-04T03:45:01;5.30;99.30
58582;DHT22;44361;51.476;5.700;2023-03-04T03:47:27;5.30;99.50
58582;DHT22;44361;51.476;5.700;2023-03-04T03:49:52;5.30;99.40
58582;DHT22;44361;51.476;5.700;2023-03-04T03:52:18;5.30;99.30
58582;DHT22;44361;51.476;5.700;2023-03-04T03:54:43;5.30;98.80
58582;DHT22;44361;51.476;5.700;2023-03-04T03:57:09;5.30;98.90
58582;DHT22;44361;51.476;5.700;2023-03-04T03:59:34;5.40;99.00
58582;DHT22;44361;51.476;5.700;2023-03-04T04:02:00;5.30;98.80
58582;DHT22;44361;51.476;5.700;2023-03-04T04:04:25;5.40;98.60
58582;DHT22;44361;51.476;5.700;2023-03-04T04:06:51;5.30;98.40
58582;DHT22;44361;51.476;5.700;2023-03-04T04:09:17;5.30;98.20
58582;DHT22;44361;51.476;5.700;2023-03-04T04:11:42;5.30;98.20
58582;DHT22;44361;51.476;5.700;2023-03-04T04:14:11;5.40;98.20
58582;DHT22;44361;51.476;5.700;2023-03-04T04:16:37;5.40;98.00
58582;DHT22;44361;51.476;5.700;2023-03-04T04:19:04;5.40;98.00
58582;DHT22;44361;51.476;5.700;2023-03-04T04:21:29;5.40;98.10
58582;DHT22;44361;51.476;5.700;2023-03-04T04:23:55;5.30;98.20
58582;DHT22;44361;51.476;5.700;2023-03-04T04:26:20;5.40;98.40
58582;DHT22;44361;51.476;5.700;2023-03-04T04:28:46;5.30;98.50
58582;DHT22;44361;51.476;5.700;2023-03-04T04:31:11;5.30;98.80
58582;DHT22;44361;51.476;5.700;2023-03-04T04:33:37;5.30;98.90
58582;DHT22;44361;51.476;5.700;2023-03-04T04:36:03;5.30;98.90
58582;DHT22;44361;51.476;5.700;2023-03-04T04:38:29;5.30;99.30
58582;DHT22;44361;51.476;5.700;2023-03-04T04:40:56;5.30;99.50
58582;DHT22;44361;51.476;5.700;2023-03-04T04:43:23;5.30;99.50
58582;DHT22;44361;51.476;5.700;2023-03-04T04:45:48;5.30;99.60
58582;DHT22;44361;51.476;5.700;2023-03-04T04:48:14;5.30;99.80
58582;DHT22;44361;51.476;5.700;2023-03-04T04:50:39;5.30;99.80
58582;DHT22;44361;51.476;5.700;2023-03-04T04:53:05;5.30;99.90
58582;DHT22;44361;51.476;5.700;2023-03-04T04:55:30;5.30;99.90
58582;DHT22;44361;51.476;5.700;2023-03-04T04:57:56;5.30;99.90
58582;DHT22;44361;51.476;5.700;2023-03-04T05:00:21;5.30;99.90
58582;DHT22;44361;51.476;5.700;2023-03-04T05:02:47;5.30;99.90
58582;DHT22;44361;51.476;5.700;2023-03-04T05:05:13;5.30;99.90
58582;DHT22;44361;51.476;5.700;2023-03-04T05:07:38;5.20;99.90
58582;DHT22;44361;51.476;5.700;2023-03-04T05:10:04;5.30;99.90
58582;DHT22;44361;51.476;5.700;2023-03-04T05:12:30;5.30;99.90
58582;DHT22;44361;51.476;5.700;2023-03-04T05:14:55;5.30;99.90
58582;DHT22;44361;51.476;5.700;2023-03-04T05:17:21;5.30;99.40
58582;DHT22;44361;51.476;5.700;2023-03-04T05:19:47;5.30;98.30
58582;DHT22;44361;51.476;5.700;2023-03-04T05:22:12;5.40;97.60
58582;DHT22;44361;51.476;5.700;2023-03-04T05:24:38;5.40;97.50
58582;DHT22;44361;51.476;5.700;2023-03-04T05:27:03;5.30;96.90
58582;DHT22;44361;51.476;5.700;2023-03-04T05:29:29;5.40;96.70
58582;DHT22;44361;51.476;5.700;2023-03-04T05:31:54;5.30;96.70
58582;DHT22;44361;51.476;5.700;2023-03-04T05:34:20;5.40;96.80
58582;DHT22;44361;51.476;5.700;2023-03-04T05:36:45;5.40;96.90
58582;DHT22;44361;51.476;5.700;2023-03-04T05:39:11;5.30;96.90
58582;DHT22;44361;51.476;5.700;2023-03-04T05:41:36;5.40;97.00
58582;DHT22;44361;51.476;5.700;2023-03-04T05:44:02;5.40;97.10
58582;DHT22;44361;51.476;5.700;2023-03-04T05:46:28;5.40;97.20
58582;DHT22;44361;51.476;5.700;2023-03-04T05:48:54;5.30;97.20
58582;DHT22;44361;51.476;5.700;2023-03-04T05:51:20;5.30;97.40
58582;DHT22;44361;51.476;5.700;2023-03-04T05:53:46;5.30;97.50
58582;DHT22;44361;51.476;5.700;2023-03-04T05:56:14;5.30;97.40
58582;DHT22;44361;51.476;5.700;2023-03-04T05:58:40;5.30;97.60
58582;DHT22;44361;51.476;5.700;2023-03-04T06:01:06;5.40;97.70
58582;DHT22;44361;51.476;5.700;2023-03-04T06:03:32;5.30;97.50
58582;DHT22;44361;51.476;5.700;2023-03-04T06:05:58;5.40;97.60
58582;DHT22;44361;51.476;5.700;2023-03-04T06:08:24;5.30;97.80
58582;DHT22;44361;51.476;5.700;2023-03-04T06:10:52;5.30;97.80
58582;DHT22;44361;51.476;5.700;2023-03-04T06:13:18;5.30;98.00
58582;DHT22;44361;51.476;5.700;2023-03-04T06:15:44;5.30;98.00
58582;DHT22;44361;51.476;5.700;2023-03-04T06:18:10;5.30;98.10
58582;DHT22;44361;51.476;5.700;2023-03-04T06:20:36;5.30;98.00
58582;DHT22;44361;51.476;5.700;2023-03-04T06:23:02;5.30;98.20
58582;DHT22;44361;51.476;5.700;2023-03-04T06:25:28;5.30;98.50
58582;DHT22;44361;51.476;5.700;2023-03-04T06:27:54;5.30;98.80
58582;DHT22;44361;51.476;5.700;2023-03-04T06:30:19;5.30;99.10
58582;DHT22;44361;51.476;5.700;2023-03-04T06:32:45;5.30;99.40
58582;DHT22;44361;51.476;5.700;2023-03-04T06:35:12;5.20;99.40
58582;DHT22;44361;51.476;5.700;2023-03-04T06:37:39;5.20;99.90
58582;DHT22;44361;51.476;5.700;2023-03-04T06:40:05;5.20;99.90
58582;DHT22;44361;51.476;5.700;2023-03-04T06:42:33;5.20;99.90
58582;DHT22;44361;51.476;5.700;2023-03-04T06:44:58;5.30;99.90
58582;DHT22;44361;51.476;5.700;2023-03-04T06:47:24;5.20;99.90
58582;DHT22;44361;51.476;5.700;2023-03-04T06:49:50;5.20;99.90
58582;DHT22;44361;51.476;5.700;2023-03-04T06:52:15;5.10;99.90
58582;DHT22;44361;51.476;5.700;2023-03-04T06:54:41;5.20;99.90
58582;DHT22;44361;51.476;5.700;2023-03-04T06:57:06;5.10;99.90
58582;DHT22;44361;51.476;5.700;2023-03-04T06:59:32;5.20;99.90
58582;DHT22;44361;51.476;5.700;2023-03-04T07:01:58;5.10;99.90
58582;DHT22;44361;51.476;5.700;2023-03-04T07:04:24;5.10;99.90
58582;DHT22;44361;51.476;5.700;2023-03-04T07:06:50;5.10;99.90
58582;DHT22;44361;51.476;5.700;2023-03-04T07:09:16;5.10;99.90
58582;DHT22;44361;51.476;5.700;2023-03-04T07:11:42;5.10;99.90
58582;DHT22;44361;51.476;5.700;2023-03-04T07:14:08;5.10;99.90
58582;DHT22;44361;51.476;5.700;2023-03-04T07:16:33;5.10;99.90
58582;DHT22;44361;51.476;5.700;2023-03-04T07:18:59;5.20;99.90
58582;DHT22;44361;51.476;5.700;2023-03-04T07:21:25;5.20;99.90
58582;DHT22;44361;51.476;5.700;2023-03-04T07:23:50;5.30;99.90
58582;DHT22;44361;51.476;5.700;2023-03-04T07:26:16;5.30;99.90
58582;DHT22;44361;51.476;5.700;2023-03-04T07:28:42;5.30;99.90
58582;DHT22;44361;51.476;5.700;2023-03-04T07:31:23;5.30;99.90
58582;DHT22;44361;51.476;5.700;2023-03-04T07:33:50;5.40;99.90
58582;DHT22;44361;51.476;5.700;2023-03-04T07:36:16;5.40;99.90
58582;DHT22;44361;51.476;5.700;2023-03-04T07:38:45;5.50;99.90
58582;DHT22;44361;51.476;5.700;2023-03-04T07:41:11;5.60;99.90
58582;DHT22;44361;51.476;5.700;2023-03-04T07:43:37;5.60;99.90
58582;DHT22;44361;51.476;5.700;2023-03-04T07:46:02;5.70;99.90
58582;DHT22;44361;51.476;5.700;2023-03-04T07:48:28;5.70;99.90
58582;DHT22;44361;51.476;5.700;2023-03-04T07:51:12;5.70;99.90
58582;DHT22;44361;51.476;5.700;2023-03-04T07:53:40;5.60;99.90
58582;DHT22;44361;51.476;5.700;2023-03-04T07:56:07;5.60;99.90
58582;DHT22;44361;51.476;5.700;2023-03-04T07:58:35;5.70;99.90
58582;DHT22;44361;51.476;5.700;2023-03-04T08:01:05;5.70;99.90
58582;DHT22;44361;51.476;5.700;2023-03-04T08:03:32;5.70;99.90
58582;DHT22;44361;51.476;5.700;2023-03-04T08:05:57;5.90;99.90
58582;DHT22;44361;51.476;5.700;2023-03-04T08:08:23;6.00;99.90
58582;DHT22;44361;51.476;5.700;2023-03-04T08:10:48;5.90;99.90
58582;DHT22;44361;51.476;5.700;2023-03-04T08:13:14;6.10;99.90
58582;DHT22;44361;51.476;5.700;2023-03-04T08:15:40;6.00;99.90
58582;DHT22;44361;51.476;5.700;2023-03-04T08:18:07;6.00;99.90
58582;DHT22;44361;51.476;5.700;2023-03-04T08:20:33;6.10;99.90
58582;DHT22;44361;51.476;5.700;2023-03-04T08:22:58;6.10;99.90
58582;DHT22;44361;51.476;5.700;2023-03-04T08:25:24;6.10;99.90
58582;DHT22;44361;51.476;5.700;2023-03-04T08:27:49;6.20;99.90
58582;DHT22;44361;51.476;5.700;2023-03-04T08:30:15;6.20;99.90
58582;DHT22;44361;51.476;5.700;2023-03-04T08:32:40;6.20;99.90
58582;DHT22;44361;51.476;5.700;2023-03-04T08:35:06;6.30;99.90
58582;DHT22;44361;51.476;5.700;2023-03-04T08:37:31;6.40;99.90
58582;DHT22;44361;51.476;5.700;2023-03-04T08:39:57;6.60;99.90
58582;DHT22;44361;51.476;5.700;2023-03-04T08:42:23;6.60;99.90
58582;DHT22;44361;51.476;5.700;2023-03-04T08:44:49;6.60;99.90
58582;DHT22;44361;51.476;5.700;2023-03-04T08:47:15;6.70;99.90
58582;DHT22;44361;51.476;5.700;2023-03-04T08:49:41;6.60;99.90
58582;DHT22;44361;51.476;5.700;2023-03-04T08:52:07;6.80;99.90
58582;DHT22;44361;51.476;5.700;2023-03-04T08:54:33;7.00;99.90
58582;DHT22;44361;51.476;5.700;2023-03-04T08:56:58;7.10;99.90
58582;DHT22;44361;51.476;5.700;2023-03-04T08:59:24;7.30;99.90
58582;DHT22;44361;51.476;5.700;2023-03-04T09:01:49;7.20;99.90
58582;DHT22;44361;51.476;5.700;2023-03-04T09:04:15;7.10;99.90
58582;DHT22;44361;51.476;5.700;2023-03-04T09:06:40;7.00;99.90
58582;DHT22;44361;51.476;5.700;2023-03-04T09:09:06;7.00;99.90
58582;DHT22;44361;51.476;5.700;2023-03-04T09:11:31;7.00;99.90
58582;DHT22;44361;51.476;5.700;2023-03-04T09:13:57;7.20;99.90
58582;DHT22;44361;51.476;5.700;2023-03-04T09:16:22;7.30;99.90
58582;DHT22;44361;51.476;5.700;2023-03-04T09:18:48;7.40;99.90
58582;DHT22;44361;51.476;5.700;2023-03-04T09:21:14;7.50;99.90
58582;DHT22;44361;51.476;5.700;2023-03-04T09:23:40;7.40;99.90
58582;DHT22;44361;51.476;5.700;2023-03-04T09:26:13;7.70;99.90
58582;DHT22;44361;51.476;5.700;2023-03-04T09:28:39;7.70;99.80
58582;DHT22;44361;51.476;5.700;2023-03-04T09:31:11;7.50;99.90
58582;DHT22;44361;51.476;5.700;2023-03-04T09:33:36;7.60;99.90
58582;DHT22;44361;51.476;5.700;2023-03-04T09:36:03;7.60;99.90
58582;DHT22;44361;51.476;5.700;2023-03-04T09:38:28;7.70;99.90
58582;DHT22;44361;51.476;5.700;2023-03-04T09:40:54;7.60;99.90
58582;DHT22;44361;51.476;5.700;2023-03-04T09:43:23;7.60;99.70
58582;DHT22;44361;51.476;5.700;2023-03-04T09:45:56;7.50;99.90
58582;DHT22;44361;51.476;5.700;2023-03-04T09:48:26;7.80;99.90
58582;DHT22;44361;51.476;5.700;2023-03-04T09:56:33;8.00;99.20
58582;DHT22;44361;51.476;5.700;2023-03-04T09:59:02;7.90;99.20
58582;DHT22;44361;51.476;5.700;2023-03-04T10:04:11;8.00;99.00
58582;DHT22;44361;51.476;5.700;2023-03-04T10:06:39;8.10;99.00
58582;DHT22;44361;51.476;5.700;2023-03-04T10:09:15;8.00;99.10
58582;DHT22;44361;51.476;5.700;2023-03-04T10:11:47;8.00;98.80
58582;DHT22;44361;51.476;5.700;2023-03-04T10:16:58;8.60;98.10
58582;DHT22;44361;51.476;5.700;2023-03-04T10:19:48;8.70;97.70
58582;DHT22;44361;51.476;5.700;2023-03-04T10:24:55;8.50;97.90
58582;DHT22;44361;51.476;5.700;2023-03-04T10:27:21;8.50;98.30
58582;DHT22;44361;51.476;5.700;2023-03-04T10:29:48;8.20;98.10
58582;DHT22;44361;51.476;5.700;2023-03-04T10:32:17;8.10;98.40
58582;DHT22;44361;51.476;5.700;2023-03-04T10:34:43;8.30;98.50
58582;DHT22;44361;51.476;5.700;2023-03-04T10:37:09;8.50;98.00
58582;DHT22;44361;51.476;5.700;2023-03-04T10:39:45;8.50;98.00
58582;DHT22;44361;51.476;5.700;2023-03-04T10:47:15;8.10;99.00
58582;DHT22;44361;51.476;5.700;2023-03-04T10:49:51;8.20;99.20
58582;DHT22;44361;51.476;5.700;2023-03-04T10:52:25;8.20;99.20
58582;DHT22;44361;51.476;5.700;2023-03-04T10:54:53;8.20;99.30
58582;DHT22;44361;51.476;5.700;2023-03-04T10:57:24;8.20;99.20
58582;DHT22;44361;51.476;5.700;2023-03-04T10:59:57;8.10;99.20
58582;DHT22;44361;51.476;5.700;2023-03-04T11:02:29;7.90;99.20
58582;DHT22;44361;51.476;5.700;2023-03-04T11:07:38;7.70;99.70
58582;DHT22;44361;51.476;5.700;2023-03-04T11:10:18;7.80;99.80
58582;DHT22;44361;51.476;5.700;2023-03-04T11:15:21;7.80;99.60
58582;DHT22;44361;51.476;5.700;2023-03-04T11:17:56;8.00;99.90
58582;DHT22;44361;51.476;5.700;2023-03-04T11:20:34;8.20;99.80
58582;DHT22;44361;51.476;5.700;2023-03-04T11:23:05;8.40;99.20
58582;DHT22;44361;51.476;5.700;2023-03-04T11:25:36;8.80;99.20
58582;DHT22;44361;51.476;5.700;2023-03-04T11:28:21;9.20;98.60
58582;DHT22;44361;51.476;5.700;2023-03-04T11:30:51;9.40;98.10
58582;DHT22;44361;51.476;5.700;2023-03-04T11:33:32;9.30;97.90
58582;DHT22;44361;51.476;5.700;2023-03-04T11:38:47;8.50;98.80
58582;DHT22;44361;51.476;5.700;2023-03-04T11:41:24;8.40;99.60
58582;DHT22;44361;51.476;5.700;2023-03-04T11:43:52;8.60;99.10
58582;DHT22;44361;51.476;5.700;2023-03-04T11:46:28;8.80;98.80
58582;DHT22;44361;51.476;5.700;2023-03-04T11:49:16;8.90;98.90
58582;DHT22;44361;51.476;5.700;2023-03-04T11:51:52;9.20;98.60
58582;DHT22;44361;51.476;5.700;2023-03-04T11:54:37;9.40;97.80
58582;DHT22;44361;51.476;5.700;2023-03-04T12:02:23;9.20;99.00
58582;DHT22;44361;51.476;5.700;2023-03-04T12:22:46;9.10;97.80
58582;DHT22;44361;51.476;5.700;2023-03-04T12:27:56;9.00;98.80
58582;DHT22;44361;51.476;5.700;2023-03-04T12:41:42;8.90;99.00
58582;DHT22;44361;51.476;5.700;2023-03-04T12:44:17;8.90;99.00
58582;DHT22;44361;51.476;5.700;2023-03-04T12:47:33;8.80;99.30
58582;DHT22;44361;51.476;5.700;2023-03-04T12:50:02;8.80;99.50
58582;DHT22;44361;51.476;5.700;2023-03-04T12:55:16;8.60;99.90
58582;DHT22;44361;51.476;5.700;2023-03-04T12:57:44;8.80;99.90
58582;DHT22;44361;51.476;5.700;2023-03-04T13:00:34;9.00;99.90
58582;DHT22;44361;51.476;5.700;2023-03-04T13:03:11;8.90;99.90
58582;DHT22;44361;51.476;5.700;2023-03-04T13:08:32;8.90;99.90
58582;DHT22;44361;51.476;5.700;2023-03-04T13:11:31;9.10;99.90
58582;DHT22;44361;51.476;5.700;2023-03-04T13:16:29;8.90;99.90
58582;DHT22;44361;51.476;5.700;2023-03-04T13:18:57;9.00;99.90
58582;DHT22;44361;51.476;5.700;2023-03-04T13:21:28;9.00;99.50
58582;DHT22;44361;51.476;5.700;2023-03-04T13:23:54;9.00;99.60
58582;DHT22;44361;51.476;5.700;2023-03-04T13:26:22;8.90;99.50
58582;DHT22;44361;51.476;5.700;2023-03-04T13:29:38;8.80;99.70
58582;DHT22;44361;51.476;5.700;2023-03-04T13:31:58;8.60;99.90
58582;DHT22;44361;51.476;5.700;2023-03-04T13:34:44;8.50;99.90
58582;DHT22;44361;51.476;5.700;2023-03-04T13:37:33;8.40;99.90
58582;DHT22;44361;51.476;5.700;2023-03-04T13:42:52;8.50;99.90
58582;DHT22;44361;51.476;5.700;2023-03-04T13:45:36;8.50;99.90
58582;DHT22;44361;51.476;5.700;2023-03-04T13:48:26;8.50;99.90
58582;DHT22;44361;51.476;5.700;2023-03-04T13:50:53;8.30;99.90
58582;DHT22;44361;51.476;5.700;2023-03-04T13:53:30;8.20;99.90
58582;DHT22;44361;51.476;5.700;2023-03-04T13:56:18;8.10;99.90
58582;DHT22;44361;51.476;5.700;2023-03-04T13:58:45;7.90;99.90
58582;DHT22;44361;51.476;5.700;2023-03-04T14:01:33;7.70;99.90
58582;DHT22;44361;51.476;5.700;2023-03-04T14:04:00;7.70;99.90
58582;DHT22;44361;51.476;5.700;2023-03-04T14:06:28;7.70;99.90
58582;DHT22;44361;51.476;5.700;2023-03-04T14:08:54;7.70;99.90
58582;DHT22;44361;51.476;5.700;2023-03-04T14:11:27;7.80;99.90
58582;DHT22;44361;51.476;5.700;2023-03-04T14:13:54;8.00;99.90
58582;DHT22;44361;51.476;5.700;2023-03-04T14:16:24;8.20;99.90
58582;DHT22;44361;51.476;5.700;2023-03-04T14:18:58;8.30;99.90
58582;DHT22;44361;51.476;5.700;2023-03-04T14:21:23;8.30;99.90
58582;DHT22;44361;51.476;5.700;2023-03-04T14:24:00;8.40;99.90
58582;DHT22;44361;51.476;5.700;2023-03-04T14:26:26;8.60;99.90
58582;DHT22;44361;51.476;5.700;2023-03-04T14:28:52;8.70;99.90
58582;DHT22;44361;51.476;5.700;2023-03-04T14:31:23;8.90;99.90
58582;DHT22;44361;51.476;5.700;2023-03-04T14:33:52;8.80;99.90
58582;DHT22;44361;51.476;5.700;2023-03-04T14:36:22;8.80;99.90
58582;DHT22;44361;51.476;5.700;2023-03-04T14:38:56;8.70;99.90
58582;DHT22;44361;51.476;5.700;2023-03-04T14:44:08;8.50;99.90
58582;DHT22;44361;51.476;5.700;2023-03-04T14:46:49;8.30;99.90
58582;DHT22;44361;51.476;5.700;2023-03-04T14:49:18;8.20;99.90
58582;DHT22;44361;51.476;5.700;2023-03-04T14:51:50;8.20;99.90
58582;DHT22;44361;51.476;5.700;2023-03-04T14:56:55;8.20;99.90
58582;DHT22;44361;51.476;5.700;2023-03-04T14:59:34;8.10;99.90
58582;DHT22;44361;51.476;5.700;2023-03-04T15:05:00;7.90;99.90
58582;DHT22;44361;51.476;5.700;2023-03-04T15:07:36;7.90;99.90
58582;DHT22;44361;51.476;5.700;2023-03-04T15:10:08;8.00;99.90
58582;DHT22;44361;51.476;5.700;2023-03-04T15:12:36;8.00;99.90
58582;DHT22;44361;51.476;5.700;2023-03-04T15:15:28;7.90;99.90
58582;DHT22;44361;51.476;5.700;2023-03-04T15:17:57;8.00;99.90
58582;DHT22;44361;51.476;5.700;2023-03-04T15:20:29;8.10;99.90
58582;DHT22;44361;51.476;5.700;2023-03-04T15:22:57;8.10;99.90
58582;DHT22;44361;51.476;5.700;2023-03-04T15:25:23;8.20;99.90
58582;DHT22;44361;51.476;5.700;2023-03-04T15:27:50;8.40;99.90
58582;DHT22;44361;51.476;5.700;2023-03-04T15:32:48;8.30;99.90
58582;DHT22;44361;51.476;5.700;2023-03-04T15:35:15;8.40;99.90
58582;DHT22;44361;51.476;5.700;2023-03-04T15:37:42;8.20;99.90
58582;DHT22;44361;51.476;5.700;2023-03-04T15:40:16;8.20;99.90
58582;DHT22;44361;51.476;5.700;2023-03-04T15:42:43;8.00;99.90
58582;DHT22;44361;51.476;5.700;2023-03-04T15:45:22;8.00;99.90
58582;DHT22;44361;51.476;5.700;2023-03-04T15:47:48;8.00;99.90
58582;DHT22;44361;51.476;5.700;2023-03-04T15:50:15;7.80;99.90
58582;DHT22;44361;51.476;5.700;2023-03-04T15:52:41;7.70;99.90
58582;DHT22;44361;51.476;5.700;2023-03-04T15:55:16;7.60;99.90
58582;DHT22;44361;51.476;5.700;2023-03-04T15:57:47;7.50;99.90
58582;DHT22;44361;51.476;5.700;2023-03-04T16:00:13;7.40;99.90
58582;DHT22;44361;51.476;5.700;2023-03-04T16:02:39;7.40;99.90
58582;DHT22;44361;51.476;5.700;2023-03-04T16:05:06;7.40;99.90
58582;DHT22;44361;51.476;5.700;2023-03-04T16:07:31;7.40;99.90
58582;DHT22;44361;51.476;5.700;2023-03-04T16:10:04;7.40;99.90
58582;DHT22;44361;51.476;5.700;2023-03-04T16:12:32;7.40;99.90
58582;DHT22;44361;51.476;5.700;2023-03-04T16:14:57;7.40;99.90
58582;DHT22;44361;51.476;5.700;2023-03-04T16:17:23;7.40;99.90
58582;DHT22;44361;51.476;5.700;2023-03-04T16:19:48;7.40;99.90
58582;DHT22;44361;51.476;5.700;2023-03-04T16:22:17;7.40;99.90
58582;DHT22;44361;51.476;5.700;2023-03-04T16:24:43;7.40;99.90
58582;DHT22;44361;51.476;5.700;2023-03-04T16:27:13;7.50;99.90
58582;DHT22;44361;51.476;5.700;2023-03-04T16:29:40;7.40;99.90
58582;DHT22;44361;51.476;5.700;2023-03-04T16:32:05;7.40;99.90
58582;DHT22;44361;51.476;5.700;2023-03-04T16:34:31;7.40;99.90
58582;DHT22;44361;51.476;5.700;2023-03-04T16:36:58;7.30;99.90
58582;DHT22;44361;51.476;5.700;2023-03-04T16:39:24;7.30;99.80
58582;DHT22;44361;51.476;5.700;2023-03-04T16:41:51;7.10;99.10
58582;DHT22;44361;51.476;5.700;2023-03-04T16:44:17;7.10;98.80
58582;DHT22;44361;51.476;5.700;2023-03-04T16:46:42;7.00;98.90
58582;DHT22;44361;51.476;5.700;2023-03-04T16:49:08;7.00;99.00
58582;DHT22;44361;51.476;5.700;2023-03-04T16:51:41;7.00;99.10
58582;DHT22;44361;51.476;5.700;2023-03-04T16:54:28;7.00;99.30
58582;DHT22;44361;51.476;5.700;2023-03-04T16:56:55;7.00;99.40
58582;DHT22;44361;51.476;5.700;2023-03-04T16:59:21;7.00;99.60
58582;DHT22;44361;51.476;5.700;2023-03-04T17:01:47;7.00;99.50
58582;DHT22;44361;51.476;5.700;2023-03-04T17:04:13;6.90;99.60
58582;DHT22;44361;51.476;5.700;2023-03-04T17:06:38;6.90;99.40
58582;DHT22;44361;51.476;5.700;2023-03-04T17:09:06;6.90;99.70
58582;DHT22;44361;51.476;5.700;2023-03-04T17:11:32;6.90;99.60
58582;DHT22;44361;51.476;5.700;2023-03-04T17:13:57;6.80;99.70
58582;DHT22;44361;51.476;5.700;2023-03-04T17:16:23;6.80;99.40
58582;DHT22;44361;51.476;5.700;2023-03-04T17:18:49;6.80;99.10
58582;DHT22;44361;51.476;5.700;2023-03-04T17:21:21;6.90;98.30